createdAt,value
2018-12-07T00:01:41.116Z,88.23
2018-12-07T00:04:12.605Z,88.24
2018-12-07T00:06:43.360Z,88.69
2018-12-07T00:09:14.711Z,88.74
2018-12-07T00:11:46.207Z,89.38
2018-12-07T00:14:18.041Z,89.21
2018-12-07T00:16:48.118Z,88.90
2018-12-07T00:19:18.667Z,89.27
2018-12-07T00:21:52.059Z,89.29
2018-12-07T00:24:23.034Z,89.58
2018-12-07T00:26:53.803Z,89.22
2018-12-07T00:29:23.888Z,88.92
2018-12-07T00:31:56.142Z,89.46
2018-12-07T00:34:28.559Z,90.04
2018-12-07T00:36:58.866Z,89.94
2018-12-07T00:39:29.554Z,90.49
2018-12-07T00:42:01.874Z,90.71
2018-12-07T00:44:31.999Z,91.16
2018-12-07T00:47:03.776Z,91.36
2018-12-07T00:49:35.998Z,91.78
2018-12-07T00:52:06.919Z,91.81
2018-12-07T00:54:37.103Z,92.03
2018-12-07T00:57:07.433Z,92.07
2018-12-07T00:59:38.126Z,92.23
2018-12-07T01:02:09.311Z,92.57
2018-12-07T01:04:39.466Z,93.03
2018-12-07T01:07:10.787Z,92.78
2018-12-07T01:09:40.914Z,93.03
2018-12-07T01:12:11.318Z,93.51
2018-12-07T01:14:41.464Z,92.86
2018-12-07T01:17:12.408Z,93.34
2018-12-07T01:19:43.042Z,92.86
2018-12-07T01:22:13.146Z,93.01
2018-12-07T01:24:43.188Z,93.18
2018-12-07T01:27:14.283Z,93.47
2018-12-07T01:29:44.379Z,92.84
2018-12-07T01:32:15.135Z,92.84
2018-12-07T01:34:45.182Z,93.18
2018-12-07T01:37:15.806Z,93.46
2018-12-07T01:39:46.317Z,92.98
2018-12-07T01:42:16.463Z,93.11
2018-12-07T01:44:46.655Z,92.98
2018-12-07T01:47:18.275Z,92.92
2018-12-07T01:49:48.434Z,92.60
2018-12-07T01:52:18.722Z,93.40
2018-12-07T01:54:49.367Z,93.06
2018-12-07T01:57:19.503Z,93.05
2018-12-07T01:59:49.503Z,92.72
2018-12-07T02:02:20.723Z,92.36
2018-12-07T02:04:51.431Z,92.83
2018-12-07T02:07:34.164Z,92.97
2018-12-07T02:10:05.490Z,92.44
2018-12-07T02:12:36.925Z,92.90
2018-12-07T02:15:07.905Z,93.09
2018-12-07T02:17:37.939Z,93.10
2018-12-07T02:20:08.253Z,92.46
2018-12-07T02:22:38.339Z,92.64
2018-12-07T02:25:08.447Z,92.33
2018-12-07T02:27:44.198Z,92.51
2018-12-07T02:30:14.732Z,92.54
2018-12-07T02:32:44.900Z,92.27
2018-12-07T02:35:16.017Z,92.49
2018-12-07T02:37:47.333Z,92.71
2018-12-07T02:40:18.212Z,93.09
2018-12-07T02:42:48.477Z,92.56
2018-12-07T02:45:19.262Z,92.96
2018-12-07T02:47:49.377Z,92.74
2018-12-07T02:50:20.118Z,93.05
2018-12-07T02:52:50.957Z,92.66
2018-12-07T02:55:22.923Z,92.52
2018-12-07T02:57:53.679Z,92.58
2018-12-07T03:00:24.507Z,92.25
2018-12-07T03:02:55.767Z,92.46
2018-12-07T03:05:25.825Z,92.70
2018-12-07T03:07:56.525Z,92.87
2018-12-07T03:10:27.018Z,92.05
2018-12-07T03:12:57.217Z,92.54
2018-12-07T03:15:28.502Z,91.84
2018-12-07T03:17:59.390Z,92.11
2018-12-07T03:20:29.770Z,91.92
2018-12-07T03:22:59.747Z,91.54
2018-12-07T03:25:29.851Z,91.37
2018-12-07T03:27:59.980Z,91.51
2018-12-07T03:30:31.012Z,91.75
2018-12-07T03:33:00.999Z,91.42
2018-12-07T03:35:31.861Z,91.24
2018-12-07T03:38:03.654Z,91.28
2018-12-07T03:40:34.454Z,91.31
2018-12-07T03:43:05.401Z,90.62
2018-12-07T03:45:36.446Z,91.20
2018-12-07T03:48:07.223Z,90.89
2018-12-07T03:50:38.540Z,91.66
2018-12-07T03:53:09.137Z,91.75
2018-12-07T03:55:39.390Z,91.05
2018-12-07T03:58:09.727Z,91.54
2018-12-07T04:00:40.366Z,91.11
2018-12-07T04:03:10.510Z,91.35
2018-12-07T04:05:40.607Z,91.37
2018-12-07T04:08:11.106Z,90.88
2018-12-07T04:10:42.468Z,90.94
2018-12-07T04:13:13.854Z,90.59
2018-12-07T04:15:43.870Z,90.94
2018-12-07T04:18:14.098Z,90.84
2018-12-07T04:20:45.361Z,90.67
2018-12-07T04:23:16.151Z,90.96
2018-12-07T04:25:46.392Z,90.23
2018-12-07T04:28:16.686Z,90.62
2018-12-07T04:30:46.957Z,90.13
2018-12-07T04:33:17.007Z,89.64
2018-12-07T04:35:48.376Z,90.48
2018-12-07T04:38:18.399Z,90.33
2018-12-07T04:40:49.072Z,90.79
2018-12-07T04:43:19.735Z,91.00
2018-12-07T04:45:51.208Z,91.07
2018-12-07T04:48:22.655Z,91.06
2018-12-07T04:50:55.015Z,90.92
2018-12-07T04:53:25.153Z,91.25
2018-12-07T04:55:55.176Z,91.02
2018-12-07T04:58:25.694Z,90.62
2018-12-07T05:00:56.863Z,91.03
2018-12-07T05:03:26.909Z,89.93
2018-12-07T05:05:56.970Z,89.92
2018-12-07T05:08:27.348Z,89.41
2018-12-07T05:10:58.479Z,89.53
2018-12-07T05:13:29.220Z,89.52
2018-12-07T05:15:59.342Z,89.71
2018-12-07T05:18:30.776Z,89.13
2018-12-07T05:21:01.434Z,88.68
2018-12-07T05:23:32.477Z,88.50
2018-12-07T05:26:03.930Z,88.23
2018-12-07T05:28:34.064Z,88.92
2018-12-07T05:31:04.794Z,89.01
2018-12-07T05:33:37.331Z,88.97
2018-12-07T05:36:08.825Z,88.48
2018-12-07T05:38:39.570Z,88.98
2018-12-07T05:41:12.235Z,88.68
2018-12-07T05:43:58.948Z,88.86
2018-12-07T05:46:30.312Z,89.12
2018-12-07T05:49:01.244Z,89.21
2018-12-07T05:51:32.402Z,89.69
2018-12-07T05:54:02.519Z,89.26
2018-12-07T05:56:34.644Z,89.67
2018-12-07T05:59:04.811Z,89.15
2018-12-07T06:01:34.805Z,89.19
2018-12-07T06:04:05.612Z,90.11
2018-12-07T06:06:35.689Z,89.68
2018-12-07T06:09:07.938Z,89.45
2018-12-07T06:11:37.985Z,89.19
2018-12-07T06:14:08.514Z,89.51
2018-12-07T06:16:38.594Z,88.99
2018-12-07T06:19:09.888Z,89.85
2018-12-07T06:21:39.870Z,88.94
2018-12-07T06:24:09.828Z,88.70
2018-12-07T06:26:41.180Z,89.25
2018-12-07T06:29:11.733Z,88.86
2018-12-07T06:31:43.107Z,87.72
2018-12-07T06:34:13.842Z,88.02
2018-12-07T06:36:44.015Z,87.10
2018-12-07T06:39:14.374Z,87.24
2018-12-07T06:41:45.811Z,86.97
2018-12-07T06:44:15.934Z,86.88
2018-12-07T06:46:46.480Z,87.07
2018-12-07T06:49:16.994Z,87.52
2018-12-07T06:51:47.910Z,87.64
2018-12-07T06:54:20.498Z,86.86
2018-12-07T06:56:52.161Z,87.03
2018-12-07T06:59:22.795Z,87.09
2018-12-07T07:01:53.403Z,86.52
2018-12-07T07:04:24.086Z,87.04
2018-12-07T07:06:54.823Z,87.09
2018-12-07T07:09:26.666Z,87.01
2018-12-07T07:11:56.812Z,86.43
2018-12-07T07:14:26.825Z,86.94
2018-12-07T07:16:57.452Z,86.50
2018-12-07T07:19:28.033Z,86.39
2018-12-07T07:21:58.179Z,86.24
2018-12-07T07:24:28.863Z,86.63
2018-12-07T07:26:59.600Z,85.95
2018-12-07T07:29:31.543Z,86.02
2018-12-07T07:32:02.774Z,85.46
2018-12-07T07:34:34.590Z,86.06
2018-12-07T07:37:05.390Z,85.78
2018-12-07T07:39:35.413Z,86.07
2018-12-07T07:42:06.571Z,86.00
2018-12-07T07:44:37.098Z,85.64
2018-12-07T07:47:07.934Z,85.62
2018-12-07T07:49:38.597Z,85.52
2018-12-07T07:52:09.347Z,85.54
2018-12-07T07:54:40.375Z,85.34
2018-12-07T07:57:10.957Z,84.51
2018-12-07T07:59:42.055Z,84.40
2018-12-07T08:02:12.804Z,84.62
2018-12-07T08:04:43.612Z,85.04
2018-12-07T08:07:14.555Z,84.89
2018-12-07T08:09:45.630Z,85.06
2018-12-07T08:12:17.155Z,85.45
2018-12-07T08:14:49.347Z,85.49
2018-12-07T08:17:20.819Z,85.47
2018-12-07T08:19:52.229Z,85.90
2018-12-07T08:22:24.091Z,86.40
2018-12-07T08:24:54.170Z,86.93
2018-12-07T08:27:25.595Z,87.32
2018-12-07T08:29:57.638Z,87.92
2018-12-07T08:32:29.000Z,87.58
2018-12-07T08:35:00.873Z,88.25
2018-12-07T08:37:32.022Z,88.57
2018-12-07T08:40:03.145Z,88.84
2018-12-07T08:42:35.063Z,89.13
2018-12-07T08:45:06.668Z,88.73
2018-12-07T08:47:36.792Z,88.46
2018-12-07T08:50:08.699Z,88.89
2018-12-07T08:52:38.971Z,87.94
2018-12-07T08:55:09.897Z,88.55
2018-12-07T08:57:41.199Z,88.31
2018-12-07T09:00:12.266Z,88.67
2018-12-07T09:02:42.489Z,87.92
2018-12-07T09:05:12.842Z,88.05
2018-12-07T09:07:42.899Z,88.43
2018-12-07T09:10:13.137Z,88.47
2018-12-07T09:12:43.170Z,87.52
2018-12-07T09:15:14.110Z,87.28
2018-12-07T09:17:45.546Z,88.19
2018-12-07T09:20:22.136Z,87.74
2018-12-07T09:22:52.744Z,87.85
2018-12-07T09:25:22.623Z,87.50
2018-12-07T09:27:53.613Z,87.52
2018-12-07T09:30:24.370Z,88.09
2018-12-07T09:32:54.958Z,87.76
2018-12-07T09:35:25.641Z,87.61
2018-12-07T09:37:57.379Z,87.96
2018-12-07T09:40:28.045Z,87.23
2018-12-07T09:42:58.084Z,87.83
2018-12-07T09:45:30.092Z,87.77
2018-12-07T09:48:00.230Z,87.92
2018-12-07T09:50:32.706Z,88.24
2018-12-07T09:53:03.502Z,87.82
2018-12-07T09:55:35.150Z,87.92
2018-12-07T09:58:05.351Z,87.78
2018-12-07T10:00:36.189Z,87.73
2018-12-07T10:03:08.140Z,87.35
2018-12-07T10:05:38.193Z,87.13
2018-12-07T10:08:09.170Z,87.32
2018-12-07T10:10:40.445Z,87.44
2018-12-07T10:13:10.597Z,87.47
2018-12-07T10:15:41.947Z,87.48
2018-12-07T10:18:13.196Z,87.19
2018-12-07T10:20:43.218Z,87.05
2018-12-07T10:23:13.955Z,87.07
2018-12-07T10:25:44.685Z,87.67
2018-12-07T10:28:15.198Z,87.30
2018-12-07T10:30:45.871Z,87.46
2018-12-07T10:33:16.642Z,87.72
2018-12-07T10:35:47.121Z,87.45
2018-12-07T10:38:18.886Z,86.89
2018-12-07T10:40:49.606Z,86.95
2018-12-07T10:43:19.615Z,86.60
2018-12-07T10:45:49.653Z,86.83
2018-12-07T10:48:20.410Z,86.66
2018-12-07T10:50:50.323Z,87.16
2018-12-07T10:53:20.609Z,87.51
2018-12-07T10:55:52.931Z,87.81
2018-12-07T10:58:23.058Z,87.96
2018-12-07T11:01:00.138Z,87.71
2018-12-07T11:03:36.531Z,88.44
2018-12-07T11:06:12.950Z,88.51
2018-12-07T11:08:48.346Z,89.02
2018-12-07T11:11:24.638Z,89.22
2018-12-07T11:13:59.795Z,88.90
2018-12-07T11:16:35.038Z,88.93
2018-12-07T11:20:14.259Z,88.42
2018-12-07T11:22:49.918Z,88.22
2018-12-07T11:25:25.226Z,88.76
2018-12-07T11:28:00.979Z,88.46
2018-12-07T11:30:36.918Z,88.44
2018-12-07T11:33:13.212Z,88.30
2018-12-07T11:35:44.791Z,88.49
2018-12-07T11:38:14.799Z,88.83
2018-12-07T11:40:46.052Z,88.32
2018-12-07T11:43:16.865Z,88.68
2018-12-07T11:45:48.626Z,88.90
2018-12-07T11:48:19.898Z,88.58
2018-12-07T11:50:50.409Z,88.57
2018-12-07T11:53:20.355Z,88.97
2018-12-07T11:55:51.375Z,88.55
2018-12-07T11:58:22.031Z,89.41
2018-12-07T12:00:52.954Z,88.38
2018-12-07T12:03:25.880Z,89.04
2018-12-07T12:05:56.703Z,88.41
2018-12-07T12:08:27.468Z,89.05
2018-12-07T12:10:58.361Z,88.28
2018-12-07T12:13:29.505Z,88.61
2018-12-07T12:16:00.043Z,88.29
2018-12-07T12:18:30.492Z,88.38
2018-12-07T12:21:01.171Z,89.04
2018-12-07T12:23:31.263Z,88.07
2018-12-07T12:26:01.355Z,87.69
2018-12-07T12:28:31.887Z,88.00
2018-12-07T12:31:02.479Z,88.45
2018-12-07T12:33:33.139Z,87.63
2018-12-07T12:36:03.792Z,87.40
2018-12-07T12:38:34.450Z,87.23
2018-12-07T12:41:05.809Z,86.92
2018-12-07T12:43:35.902Z,86.77
2018-12-07T12:46:06.848Z,86.58
2018-12-07T12:48:36.934Z,87.22
2018-12-07T12:51:07.483Z,87.40
2018-12-07T12:53:38.587Z,87.02
2018-12-07T12:56:09.355Z,86.25
2018-12-07T12:58:40.227Z,87.04
2018-12-07T13:01:10.886Z,86.90
2018-12-07T13:03:42.544Z,86.99
2018-12-07T13:06:13.690Z,87.02
2018-12-07T13:08:44.361Z,86.80
2018-12-07T13:11:15.063Z,86.69
2018-12-07T13:13:45.555Z,85.95
2018-12-07T13:16:17.339Z,86.00
2018-12-07T13:18:48.711Z,85.97
2018-12-07T13:21:18.736Z,86.33
2018-12-07T13:23:49.590Z,85.94
2018-12-07T13:26:20.275Z,86.83
2018-12-07T13:28:50.318Z,87.33
2018-12-07T13:31:21.670Z,87.50
2018-12-07T13:33:52.599Z,86.90
2018-12-07T13:36:22.645Z,85.87
2018-12-07T13:38:53.767Z,85.85
2018-12-07T13:41:24.781Z,84.83
2018-12-07T13:43:55.634Z,84.99
2018-12-07T13:46:26.607Z,84.50
2018-12-07T13:48:58.415Z,84.49
2018-12-07T13:51:29.299Z,85.07
2018-12-07T13:53:59.407Z,86.15
2018-12-07T13:56:29.651Z,85.96
2018-12-07T13:58:59.918Z,86.35
2018-12-07T14:01:30.083Z,86.01
2018-12-07T14:04:00.402Z,86.34
2018-12-07T14:06:31.099Z,86.25
2018-12-07T14:09:02.158Z,85.45
2018-12-07T14:11:34.191Z,85.51
2018-12-07T14:14:05.921Z,85.15
2018-12-07T14:16:36.084Z,84.18
2018-12-07T14:19:06.335Z,84.30
2018-12-07T14:21:36.512Z,84.86
2018-12-07T14:24:08.846Z,84.13
2018-12-07T14:26:39.866Z,84.44
2018-12-07T14:29:10.150Z,84.32
2018-12-07T14:31:41.713Z,84.91
2018-12-07T14:34:12.484Z,84.64
2018-12-07T14:36:43.830Z,83.70
2018-12-07T14:39:14.620Z,84.19
2018-12-07T14:41:46.788Z,84.34
2018-12-07T14:44:17.688Z,83.93
2018-12-07T14:46:48.290Z,83.92
2018-12-07T14:49:18.452Z,83.13
2018-12-07T14:51:49.555Z,82.88
2018-12-07T14:54:19.964Z,82.46
2018-12-07T14:56:50.521Z,82.39
2018-12-07T14:59:21.171Z,81.82
2018-12-07T15:01:51.812Z,82.17
2018-12-07T15:04:22.021Z,82.52
2018-12-07T15:06:52.859Z,82.16
2018-12-07T15:09:25.174Z,82.46
2018-12-07T15:11:55.595Z,82.62
2018-12-07T15:14:25.730Z,82.21
2018-12-07T15:16:56.171Z,82.50
2018-12-07T15:19:26.789Z,82.65
2018-12-07T15:21:58.751Z,82.18
2018-12-07T15:24:30.511Z,82.79
2018-12-07T15:27:01.416Z,81.97
2018-12-07T15:29:31.713Z,81.37
2018-12-07T15:32:01.870Z,81.76
2018-12-07T15:34:34.160Z,81.35
2018-12-07T15:37:05.097Z,80.76
2018-12-07T15:39:35.292Z,80.73
2018-12-07T15:42:05.659Z,81.80
2018-12-07T15:44:36.442Z,81.79
2018-12-07T15:47:07.408Z,80.93
2018-12-07T15:49:40.375Z,81.70
2018-12-07T15:52:10.469Z,80.74
2018-12-07T15:54:40.512Z,81.00
2018-12-07T15:57:10.824Z,80.48
2018-12-07T15:59:40.849Z,80.68
2018-12-07T16:02:10.956Z,80.25
2018-12-07T16:04:41.471Z,80.18
2018-12-07T16:07:11.805Z,80.19
2018-12-07T16:09:42.144Z,79.78
2018-12-07T16:12:13.207Z,79.53
2018-12-07T16:14:44.147Z,79.79
2018-12-07T16:17:15.389Z,79.56
2018-12-07T16:19:46.807Z,79.82
2018-12-07T16:22:18.005Z,79.24
2018-12-07T16:24:48.293Z,79.39
2018-12-07T16:27:18.681Z,79.70
2018-12-07T16:29:50.104Z,78.99
2018-12-07T16:32:20.953Z,79.64
2018-12-07T16:34:51.170Z,79.08
2018-12-07T16:37:21.382Z,79.37
2018-12-07T16:39:52.180Z,79.28
2018-12-07T16:42:23.023Z,78.80
2018-12-07T16:44:56.365Z,79.11
2018-12-07T16:47:26.682Z,79.65
2018-12-07T16:49:58.246Z,79.36
2018-12-07T16:52:28.578Z,78.85
2018-12-07T16:54:59.271Z,78.60
2018-12-07T16:57:30.601Z,78.29
2018-12-07T17:00:01.034Z,79.43
2018-12-07T17:02:31.842Z,78.83
2018-12-07T17:05:02.870Z,78.65
2018-12-07T17:07:33.815Z,78.63
2018-12-07T17:10:04.644Z,78.56
2018-12-07T17:12:36.177Z,78.75
2018-12-07T17:15:07.377Z,78.90
2018-12-07T17:17:38.351Z,79.06
2018-12-07T17:20:09.124Z,78.90
2018-12-07T17:22:40.078Z,79.54
2018-12-07T17:25:10.238Z,79.45
2018-12-07T17:27:40.440Z,79.13
2018-12-07T17:30:11.404Z,78.98
2018-12-07T17:32:42.298Z,78.63
2018-12-07T17:35:13.131Z,79.37
2018-12-07T17:37:43.917Z,79.37
2018-12-07T17:40:14.921Z,80.10
2018-12-07T17:42:44.994Z,80.46
2018-12-07T17:45:15.688Z,80.52
2018-12-07T17:47:46.010Z,80.33
2018-12-07T17:50:16.793Z,79.14
2018-12-07T17:52:47.135Z,78.78
2018-12-07T17:55:17.831Z,78.70
2018-12-07T17:57:48.694Z,78.32
2018-12-07T18:00:18.934Z,78.27
2018-12-07T18:02:49.858Z,77.98
2018-12-07T18:05:20.756Z,77.61
2018-12-07T18:07:51.934Z,76.71
2018-12-07T18:10:22.881Z,76.08
2018-12-07T18:12:53.467Z,76.85
2018-12-07T18:15:23.744Z,76.04
2018-12-07T18:17:54.769Z,75.91
2018-12-07T18:20:24.941Z,74.78
2018-12-07T18:22:55.890Z,74.69
2018-12-07T18:25:26.322Z,75.07
2018-12-07T18:27:57.950Z,75.54
2018-12-07T18:30:28.555Z,76.22
2018-12-07T18:33:00.077Z,76.76
2018-12-07T18:35:30.261Z,77.36
2018-12-07T18:38:00.777Z,77.05
2018-12-07T18:40:32.370Z,77.06
2018-12-07T18:43:02.772Z,76.78
2018-12-07T18:45:34.283Z,77.14
2018-12-07T18:48:06.574Z,77.57
2018-12-07T18:50:37.961Z,77.63
2018-12-07T18:53:09.174Z,78.18
2018-12-07T18:55:40.094Z,77.03
2018-12-07T18:58:10.660Z,77.24
2018-12-07T19:00:41.461Z,76.07
2018-12-07T19:03:11.815Z,76.52
2018-12-07T19:05:42.891Z,76.13
2018-12-07T19:08:13.994Z,76.61
2018-12-07T19:10:45.601Z,75.97
2018-12-07T19:13:15.851Z,75.78
2018-12-07T19:15:46.619Z,76.38
2018-12-07T19:18:17.945Z,75.93
2018-12-07T19:20:48.388Z,76.14
2018-12-07T19:23:18.884Z,75.74
2018-12-07T19:25:49.982Z,75.37
2018-12-07T19:28:20.232Z,75.77
2018-12-07T19:30:51.585Z,76.54
2018-12-07T19:33:22.689Z,77.16
2018-12-07T19:35:53.548Z,76.15
2018-12-07T19:38:24.715Z,76.26
2018-12-07T19:40:55.186Z,76.13
2018-12-07T19:43:25.631Z,77.04
2018-12-07T19:45:56.030Z,77.19
2018-12-07T19:48:27.806Z,76.92
2018-12-07T19:51:00.191Z,77.29
2018-12-07T19:53:30.457Z,77.48
2018-12-07T19:56:01.699Z,77.54
2018-12-07T19:58:33.001Z,77.12
2018-12-07T20:01:03.951Z,77.21
2018-12-07T20:03:35.711Z,76.79
2018-12-07T20:06:06.986Z,77.38
2018-12-07T20:08:38.191Z,77.24
2018-12-07T20:11:08.741Z,77.60
2018-12-07T20:13:39.336Z,77.57
2018-12-07T20:16:10.389Z,78.42
2018-12-07T20:18:40.515Z,78.48
2018-12-07T20:21:11.837Z,78.91
2018-12-07T20:23:42.579Z,79.24
2018-12-07T20:26:15.083Z,79.42
2018-12-07T20:28:46.500Z,80.90
2018-12-07T20:31:16.579Z,81.06
2018-12-07T20:33:48.641Z,82.53
2018-12-07T20:36:19.907Z,83.73
2018-12-07T20:38:51.686Z,85.16
2018-12-07T20:41:24.114Z,83.50
2018-12-07T20:43:57.032Z,79.80
2018-12-07T20:46:29.195Z,79.93
2018-12-07T20:49:01.802Z,81.24
2018-12-07T20:51:33.765Z,81.89
2018-12-07T20:54:05.076Z,82.19
2018-12-07T20:56:36.384Z,82.01
2018-12-07T20:59:07.640Z,82.33
2018-12-07T21:01:40.298Z,82.90
2018-12-07T21:04:30.994Z,83.19
2018-12-07T21:07:41.507Z,83.80
2018-12-07T21:12:03.280Z,84.25
2018-12-07T21:14:47.346Z,83.93
2018-12-07T21:17:27.049Z,83.97
2018-12-07T21:20:19.273Z,85.04
2018-12-07T21:22:49.532Z,84.84
2018-12-07T21:25:19.509Z,85.37
2018-12-07T21:27:49.371Z,85.90
2018-12-07T21:30:57.131Z,85.53
2018-12-07T21:34:57.010Z,83.93
2018-12-07T21:37:28.553Z,84.12
2018-12-07T21:40:26.001Z,83.25
2018-12-07T21:42:57.707Z,83.02
2018-12-07T21:45:27.969Z,83.01
2018-12-07T21:48:32.998Z,83.08
2018-12-07T21:52:27.603Z,83.01
2018-12-07T21:54:58.570Z,83.10
2018-12-07T21:57:29.391Z,82.58
2018-12-07T22:00:00.317Z,82.43
2018-12-07T22:02:31.355Z,82.03
2018-12-07T22:05:02.649Z,81.88
2018-12-07T22:07:34.496Z,81.71
2018-12-07T22:10:06.783Z,81.27
2018-12-07T22:12:36.978Z,80.94
2018-12-07T22:15:09.497Z,80.82
2018-12-07T22:17:40.867Z,80.67
2018-12-07T22:20:11.490Z,80.64
2018-12-07T22:22:41.858Z,80.39
2018-12-07T22:25:13.283Z,80.74
2018-12-07T22:27:43.458Z,81.12
2018-12-07T22:30:14.219Z,81.10
2018-12-07T22:32:44.492Z,81.43
2018-12-07T22:35:15.322Z,79.44
2018-12-07T22:37:45.444Z,79.88
2018-12-07T22:40:16.290Z,78.81
2018-12-07T22:42:47.024Z,79.34
2018-12-07T22:45:18.178Z,79.40
2018-12-07T22:47:48.515Z,78.87
2018-12-07T22:50:19.403Z,79.01
2018-12-07T22:52:51.225Z,78.31
2018-12-07T22:55:21.313Z,78.81
2018-12-07T22:57:51.847Z,79.03
2018-12-07T23:00:22.904Z,78.02
2018-12-07T23:02:53.076Z,78.57
2018-12-07T23:05:23.174Z,78.11
2018-12-07T23:07:53.423Z,78.34
2018-12-07T23:10:24.090Z,77.68
2018-12-07T23:12:56.670Z,77.45
2018-12-07T23:15:27.742Z,77.68
2018-12-07T23:17:58.176Z,77.47
2018-12-07T23:20:29.357Z,77.37
2018-12-07T23:22:59.567Z,77.58
2018-12-07T23:25:29.663Z,77.83
2018-12-07T23:27:59.776Z,77.94
2018-12-07T23:30:31.072Z,77.96
2018-12-07T23:33:01.980Z,77.57
2018-12-07T23:35:33.744Z,77.65
2018-12-07T23:38:04.682Z,76.76
2018-12-07T23:40:35.425Z,77.52
2018-12-07T23:43:09.730Z,76.81
2018-12-07T23:45:40.483Z,76.68
2018-12-07T23:48:11.338Z,77.17
2018-12-07T23:50:41.931Z,76.33
2018-12-07T23:53:12.670Z,76.74
2018-12-07T23:55:44.007Z,76.70
2018-12-07T23:58:14.038Z,75.77
